Time;durP1;ratioP1;P1;durP2;ratioP2;P2;SDS_P1;SDS_P2;PMS_P1;PMS_P2;Temp;Humidity;BMP_temperature;BMP_pressure;BME280_temperature;BME280_humidity;BME280_pressure;Samples;Min_cycle;Max_cycle;Signal;HPM_P1;HPM_P2
2023/10/15 00:02:03;;;;;;;12.60;3.40;;;;;;;9.31;83.25;99879.73;109188;276;39591;-70
2023/10/15 00:04:37;;;;;;;8.00;2.80;;;;;;;9.28;83.45;99877.74;109133;276;38565;-70
2023/10/15 00:07:15;;;;;;;5.90;2.80;;;;;;;9.23;83.48;99880.22;109106;276;38161;-71
2023/10/15 00:09:50;;;;;;;8.40;2.70;;;;;;;9.19;83.55;99881.08;109146;276;39345;-71
2023/10/15 00:12:26;;;;;;;6.40;3.00;;;;;;;9.18;83.73;99878.52;109149;276;38245;-71
2023/10/15 00:15:01;;;;;;;7.20;2.70;;;;;;;9.16;83.48;99883.12;109082;276;40101;-71
2023/10/15 00:17:38;;;;;;;7.40;3.10;;;;;;;9.13;83.49;99886.04;109154;276;38296;-71
2023/10/15 00:20:19;;;;;;;6.70;2.50;;;;;;;9.08;83.32;99886.91;109112;276;38764;-70
2023/10/15 00:22:54;;;;;;;7.90;2.80;;;;;;;9.03;83.42;99886.06;109153;276;38233;-71
2023/10/15 00:25:35;;;;;;;6.40;2.70;;;;;;;8.97;83.22;99891.18;109166;276;38782;-70
2023/10/15 00:28:19;;;;;;;5.80;3.00;;;;;;;8.91;83.27;99892.10;108853;276;172716;-68
2023/10/15 00:31:00;;;;;;;6.50;2.80;;;;;;;8.85;83.06;99895.11;109039;276;38754;-70
2023/10/15 00:33:42;;;;;;;4.70;2.00;;;;;;;8.79;83.05;99900.23;109146;276;39765;-70
2023/10/15 00:36:23;;;;;;;6.10;2.40;;;;;;;8.71;83.06;99897.73;109191;276;39438;-70
2023/10/15 00:38:57;;;;;;;5.70;2.70;;;;;;;8.67;83.08;99895.83;109208;276;38274;-70
2023/10/15 00:41:34;;;;;;;6.00;2.60;;;;;;;8.60;83.02;99895.73;109226;276;38203;-69
2023/10/15 00:44:09;;;;;;;5.40;2.10;;;;;;;8.54;82.86;99901.85;109166;276;38596;-69
2023/10/15 00:46:54;;;;;;;7.20;2.20;;;;;;;8.49;82.91;99904.30;109208;276;39260;-69
2023/10/15 00:49:36;;;;;;;5.90;2.20;;;;;;;8.44;82.98;99903.45;109157;276;38783;-68
2023/10/15 00:52:27;;;;;;;7.90;2.70;;;;;;;8.38;82.80;99906.23;109021;276;40584;-68
2023/10/15 00:55:07;;;;;;;4.70;2.10;;;;;;;8.30;82.87;99910.52;109126;276;38377;-68
2023/10/15 00:57:46;;;;;;;6.00;2.80;;;;;;;8.23;82.87;99909.38;109119;276;39659;-68
2023/10/15 01:00:47;;;;;;;4.80;2.10;;;;;;;8.18;82.97;99907.80;109110;276;38222;-68
2023/10/15 01:03:30;;;;;;;4.70;2.20;;;;;;;8.14;83.12;99906.92;109100;276;39615;-68
2023/10/15 01:06:07;;;;;;;6.60;2.50;;;;;;;8.11;83.17;99908.77;109121;276;38234;-70
2023/10/15 01:08:42;;;;;;;7.70;2.40;;;;;;;8.08;83.44;99897.93;109119;276;39372;-71
2023/10/15 01:11:18;;;;;;;7.00;2.60;;;;;;;8.05;83.41;99899.41;109141;276;38733;-69
2023/10/15 01:14:02;;;;;;;6.90;2.20;;;;;;;8.02;83.50;99908.21;109112;276;38503;-69
2023/10/15 01:16:42;;;;;;;4.80;1.80;;;;;;;7.99;83.47;99912.30;109155;276;38485;-68
2023/10/15 01:19:31;;;;;;;7.30;2.10;;;;;;;7.96;83.43;99912.59;109162;276;38482;-68
2023/10/15 01:22:17;;;;;;;7.80;2.70;;;;;;;7.94;83.66;99917.18;109104;276;175487;-71
2023/10/15 01:24:55;;;;;;;5.60;2.10;;;;;;;7.92;83.54;99918.48;109085;276;39643;-70
2023/10/15 01:27:32;;;;;;;7.00;2.00;;;;;;;7.89;83.80;99915.10;109123;276;38242;-70
2023/10/15 01:30:17;;;;;;;5.90;2.10;;;;;;;7.88;83.82;99910.79;109113;276;38169;-70
2023/10/15 01:32:51;;;;;;;5.40;2.30;;;;;;;7.86;83.93;99910.51;109157;276;39626;-68
2023/10/15 01:35:30;;;;;;;4.30;1.80;;;;;;;7.85;83.84;99908.82;109162;276;39662;-68
2023/10/15 01:38:11;;;;;;;6.30;2.40;;;;;;;7.88;84.00;99914.61;109133;276;39344;-70
2023/10/15 01:40:52;;;;;;;5.30;2.10;;;;;;;7.90;83.99;99915.94;109148;276;39676;-69
2023/10/15 01:43:32;;;;;;;6.10;2.20;;;;;;;7.87;83.74;99917.95;109108;276;38844;-67
2023/10/15 01:46:12;;;;;;;5.90;1.80;;;;;;;7.82;83.78;99916.38;108928;276;41463;-68
2023/10/15 01:48:47;;;;;;;4.40;1.90;;;;;;;7.80;83.95;99916.08;109119;276;38466;-68
2023/10/15 01:51:39;;;;;;;5.70;2.40;;;;;;;7.76;83.81;99917.44;109074;276;38476;-69
2023/10/15 01:54:25;;;;;;;6.20;2.30;;;;;;;7.74;83.95;99923.06;109135;276;38745;-68
2023/10/15 01:57:00;;;;;;;7.70;2.40;;;;;;;7.71;84.14;99923.85;109141;276;38256;-71
2023/10/15 01:59:45;;;;;;;7.70;2.20;;;;;;;7.70;84.29;99924.05;109098;276;38414;-70
2023/10/15 02:02:23;;;;;;;9.40;2.40;;;;;;;7.68;84.26;99927.10;109142;276;38254;-72
2023/10/15 02:05:02;;;;;;;5.70;2.00;;;;;;;7.63;84.09;99926.05;109191;276;39685;-71
2023/10/15 02:07:39;;;;;;;;;;;;;;;7.60;84.23;99926.50;109271;276;38249;-70
2023/10/15 02:10:13;;;;;;;5.70;2.30;;;;;;;7.54;84.40;99925.65;109201;276;39373;-70
2023/10/15 02:12:51;;;;;;;7.60;2.40;;;;;;;7.55;84.47;99923.01;109228;276;39735;-70
2023/10/15 02:15:37;;;;;;;8.20;2.30;;;;;;;7.53;84.37;99920.10;109190;276;38864;-71
2023/10/15 02:18:17;;;;;;;8.20;2.40;;;;;;;7.49;84.58;99921.10;109037;276;175507;-70
2023/10/15 02:21:01;;;;;;;5.90;2.10;;;;;;;7.49;84.87;99927.90;109177;276;38455;-70
2023/10/15 02:23:48;;;;;;;7.60;2.60;;;;;;;7.45;84.62;99925.23;109090;276;38470;-71
2023/10/15 02:26:30;;;;;;;5.90;1.80;;;;;;;7.40;84.50;99924.87;109138;276;39427;-70
2023/10/15 02:29:07;;;;;;;5.50;2.50;;;;;;;7.38;84.91;99925.45;109046;276;38246;-70
2023/10/15 02:31:46;;;;;;;5.60;2.60;;;;;;;7.37;84.87;99929.48;109027;276;175142;-70
2023/10/15 02:34:27;;;;;;;4.50;1.90;;;;;;;7.36;85.01;99932.13;109128;272;38746;-70
2023/10/15 02:37:04;;;;;;;7.00;2.70;;;;;;;7.32;84.98;99927.21;109171;276;39638;-70
2023/10/15 02:39:44;;;;;;;7.60;2.20;;;;;;;7.28;84.99;99931.16;109113;276;38494;-71
2023/10/15 02:42:33;;;;;;;7.30;2.50;;;;;;;7.25;85.08;99939.22;109140;276;38223;-68
2023/10/15 02:45:14;;;;;;;5.00;2.10;;;;;;;7.25;85.26;99931.25;109129;276;39435;-68
2023/10/15 02:47:56;;;;;;;6.30;2.30;;;;;;;7.25;85.33;99929.17;108424;276;974279;-68
2023/10/15 02:50:37;;;;;;;7.10;2.10;;;;;;;7.23;85.17;99925.77;109097;276;39297;-67
2023/10/15 02:53:23;;;;;;;6.40;2.30;;;;;;;7.20;85.33;99929.34;109129;276;38261;-68
2023/10/15 02:56:11;;;;;;;5.20;2.40;;;;;;;7.15;85.18;99928.27;109170;276;38236;-69
2023/10/15 02:58:56;;;;;;;9.80;2.60;;;;;;;7.12;85.24;99922.83;109156;276;38143;-67
2023/10/15 03:01:45;;;;;;;4.70;2.20;;;;;;;7.10;85.44;99923.73;109129;276;38786;-68
2023/10/15 03:04:33;;;;;;;5.40;2.70;;;;;;;7.09;85.51;99924.13;109113;276;39888;-68
2023/10/15 03:07:29;;;;;;;5.10;2.20;;;;;;;7.06;85.46;99924.05;109189;276;38267;-68
2023/10/15 03:10:07;;;;;;;6.30;1.90;;;;;;;7.01;85.46;99918.30;109084;276;38730;-68
2023/10/15 03:12:44;;;;;;;6.80;1.90;;;;;;;6.98;85.35;99924.09;109152;276;39202;-70
2023/10/15 03:15:20;;;;;;;7.40;2.20;;;;;;;6.97;85.40;99926.55;109149;276;38482;-72
2023/10/15 03:17:56;;;;;;;6.50;2.30;;;;;;;6.93;85.27;99926.15;109172;276;38742;-70
2023/10/15 03:20:40;;;;;;;7.00;2.10;;;;;;;6.91;85.40;99932.13;109009;276;39647;-71
2023/10/15 03:23:18;;;;;;;6.20;2.30;;;;;;;6.88;85.24;99937.60;109106;276;38723;-67
2023/10/15 03:25:59;;;;;;;7.20;2.40;;;;;;;6.81;85.24;99941.08;109117;276;38322;-70
2023/10/15 03:28:34;;;;;;;6.60;2.10;;;;;;;6.76;85.24;99936.38;109122;276;38959;-70
2023/10/15 03:31:17;;;;;;;6.40;2.60;;;;;;;6.72;85.27;99936.16;109225;276;39106;-67
2023/10/15 03:34:16;;;;;;;5.30;1.90;;;;;;;6.68;85.27;99935.41;109109;276;38237;-69
2023/10/15 03:36:58;;;;;;;6.50;2.20;;;;;;;6.62;85.36;99935.95;109156;276;38673;-72
2023/10/15 03:39:54;;;;;;;5.70;2.30;;;;;;;6.57;85.35;99935.55;109192;276;38274;-72
2023/10/15 03:42:39;;;;;;;6.30;2.00;;;;;;;6.55;85.62;99942.36;109161;276;38373;-68
2023/10/15 03:45:16;;;;;;;5.40;1.90;;;;;;;6.53;85.89;99945.88;109124;276;38486;-68
2023/10/15 03:47:54;;;;;;;5.20;2.20;;;;;;;6.52;85.74;99948.86;109192;276;38850;-70
2023/10/15 03:50:35;;;;;;;6.90;2.00;;;;;;;6.48;85.66;99946.38;109174;276;38223;-71
2023/10/15 03:53:09;;;;;;;6.30;1.90;;;;;;;6.45;85.78;99949.58;109112;276;38308;-71
2023/10/15 03:55:49;;;;;;;5.30;2.60;;;;;;;6.44;86.12;99950.80;109134;276;38826;-70
2023/10/15 03:58:23;;;;;;;7.20;2.30;;;;;;;6.43;85.94;99953.45;109121;276;38784;-70
2023/10/15 04:01:15;;;;;;;7.10;2.10;;;;;;;6.37;85.68;99956.02;109162;276;38520;-68
2023/10/15 04:03:55;;;;;;;7.00;1.90;;;;;;;6.33;85.96;99952.68;109103;276;38446;-67
2023/10/15 04:06:45;;;;;;;9.20;2.80;;;;;;;6.33;86.21;99950.77;109110;276;39348;-69
2023/10/15 04:09:25;;;;;;;6.60;2.50;;;;;;;6.35;86.47;99948.99;109097;276;39697;-67
2023/10/15 04:12:06;;;;;;;6.60;2.00;;;;;;;6.35;86.51;99943.10;109069;276;38665;-70
2023/10/15 04:14:46;;;;;;;6.70;1.90;;;;;;;6.32;86.24;99939.39;109180;276;39293;-71
2023/10/15 04:17:26;;;;;;;7.30;2.10;;;;;;;6.31;86.50;99938.89;109240;276;38815;-66
2023/10/15 04:20:06;;;;;;;6.10;1.90;;;;;;;6.33;86.77;99942.29;109165;276;38332;-67
2023/10/15 04:22:46;;;;;;;5.30;1.90;;;;;;;6.36;86.96;99942.55;109181;276;38555;-68
2023/10/15 04:25:33;;;;;;;8.20;2.10;;;;;;;6.35;86.96;99941.87;109114;276;38722;-68
2023/10/15 04:28:14;;;;;;;5.70;2.50;;;;;;;6.33;86.95;99947.31;109192;276;38153;-68
2023/10/15 04:30:52;;;;;;;8.10;2.40;;;;;;;6.31;87.02;99953.24;109147;276;38286;-71
2023/10/15 04:33:30;;;;;;;7.70;1.80;;;;;;;6.31;87.11;99951.69;109159;276;38234;-71
2023/10/15 04:36:09;;;;;;;5.00;1.80;;;;;;;6.34;87.20;99949.35;109125;276;38303;-72
2023/10/15 04:38:42;;;;;;;8.90;1.70;;;;;;;6.38;87.37;99944.23;109144;276;38267;-71
2023/10/15 04:41:21;;;;;;;7.70;2.00;;;;;;;6.40;87.17;99947.30;109146;276;39535;-69
2023/10/15 04:43:57;;;;;;;8.70;2.80;;;;;;;6.39;87.28;99942.30;109172;276;38196;-69
2023/10/15 04:46:41;;;;;;;5.30;2.10;;;;;;;6.39;87.24;99940.23;109060;276;38159;-68
2023/10/15 04:49:22;;;;;;;7.90;2.50;;;;;;;6.37;87.24;99940.61;109106;276;38700;-66
2023/10/15 04:51:59;;;;;;;6.00;2.20;;;;;;;6.36;87.32;99944.95;109135;276;38509;-69
2023/10/15 04:54:47;;;;;;;8.20;2.40;;;;;;;6.38;87.46;99941.45;109015;276;38503;-67
2023/10/15 04:57:25;;;;;;;7.60;2.70;;;;;;;6.39;87.53;99938.13;109225;276;38657;-68
2023/10/15 05:00:06;;;;;;;6.80;1.90;;;;;;;6.41;87.61;99939.48;109080;276;38177;-67
2023/10/15 05:02:49;;;;;;;5.20;1.80;;;;;;;6.39;87.50;99938.13;109214;276;38355;-68
2023/10/15 05:05:31;;;;;;;6.50;2.30;;;;;;;6.39;87.69;99930.69;109163;276;38170;-68
2023/10/15 05:08:17;;;;;;;8.80;2.10;;;;;;;6.41;87.71;99932.20;109135;276;39646;-68
2023/10/15 05:10:53;;;;;;;5.60;2.20;;;;;;;6.43;87.76;99926.75;109126;276;39057;-67
2023/10/15 05:13:32;;;;;;;6.40;2.50;;;;;;;6.47;87.87;99928.91;109069;276;38562;-67
2023/10/15 05:16:06;;;;;;;6.60;2.00;;;;;;;6.50;87.91;99930.71;109139;276;39827;-70
2023/10/15 05:18:40;;;;;;;8.60;2.80;;;;;;;6.51;88.01;99930.53;109070;276;38255;-70
2023/10/15 05:21:14;;;;;;;9.30;2.40;;;;;;;6.54;87.98;99940.14;109071;276;38298;-68
2023/10/15 05:23:50;;;;;;;5.40;2.00;;;;;;;6.53;87.79;99938.60;109086;276;39641;-68
2023/10/15 05:26:25;;;;;;;5.10;2.10;;;;;;;6.54;87.85;99938.94;109155;276;39419;-71
2023/10/15 05:29:01;;;;;;;6.30;2.10;;;;;;;6.56;87.85;99944.08;109132;276;38270;-70
2023/10/15 05:31:35;;;;;;;5.00;2.10;;;;;;;6.60;87.98;99947.95;109209;276;38413;-71
2023/10/15 05:34:15;;;;;;;6.20;2.40;;;;;;;6.63;88.05;99951.84;109159;276;38974;-72
2023/10/15 05:36:53;;;;;;;10.30;2.30;;;;;;;6.64;87.99;99960.48;109170;276;39144;-68
2023/10/15 05:39:28;;;;;;;7.20;2.40;;;;;;;6.67;88.10;99962.65;109208;276;39925;-72
2023/10/15 05:42:06;;;;;;;6.30;2.40;;;;;;;6.69;88.08;99967.95;109159;276;38794;-68
2023/10/15 05:44:46;;;;;;;7.40;2.10;;;;;;;6.74;88.02;99973.54;109178;276;38345;-69
2023/10/15 05:47:24;;;;;;;7.40;3.00;;;;;;;6.80;88.11;99979.95;109048;276;38274;-69
2023/10/15 05:49:58;;;;;;;7.10;3.00;;;;;;;6.86;88.29;99983.09;109186;276;38435;-69
2023/10/15 05:52:35;;;;;;;7.60;2.50;;;;;;;6.90;88.08;99990.77;109163;276;39313;-72
2023/10/15 05:55:14;;;;;;;8.00;2.70;;;;;;;6.95;88.08;99999.63;109137;276;39286;-71
2023/10/15 05:57:56;;;;;;;7.00;2.60;;;;;;;7.00;88.09;100000.19;109113;276;38325;-68
2023/10/15 06:00:39;;;;;;;8.40;2.40;;;;;;;7.10;88.12;100004.22;109182;276;39394;-72
2023/10/15 06:03:15;;;;;;;7.90;2.80;;;;;;;7.21;88.07;100008.07;109141;276;38154;-71
2023/10/15 06:05:54;;;;;;;7.60;2.10;;;;;;;7.35;88.04;100007.29;109167;276;38317;-69
2023/10/15 06:08:38;;;;;;;8.30;2.60;;;;;;;7.46;87.81;100013.37;109103;276;39896;-68
2023/10/15 06:11:17;;;;;;;5.70;2.50;;;;;;;7.56;87.50;100013.26;109187;276;38343;-68
2023/10/15 06:13:56;;;;;;;10.50;2.10;;;;;;;7.70;87.36;100013.50;109137;276;38145;-68
2023/10/15 06:16:47;;;;;;;5.90;2.20;;;;;;;7.82;86.95;100019.55;109173;276;38448;-72
2023/10/15 06:19:22;;;;;;;6.30;2.50;;;;;;;7.87;86.74;100024.90;109167;276;39222;-71
2023/10/15 06:22:02;;;;;;;7.40;2.30;;;;;;;7.91;86.51;100023.56;109204;276;39728;-72
2023/10/15 06:24:40;;;;;;;7.20;1.90;;;;;;;7.95;86.37;100022.39;109177;276;38265;-71
2023/10/15 06:27:18;;;;;;;5.50;2.10;;;;;;;7.99;86.44;100026.43;109169;276;38687;-67
2023/10/15 06:29:54;;;;;;;4.70;2.50;;;;;;;8.07;86.20;100024.27;109138;276;38377;-68
2023/10/15 06:32:31;;;;;;;7.30;2.70;;;;;;;8.12;86.04;100028.77;109145;276;38235;-71
2023/10/15 06:35:15;;;;;;;8.20;2.10;;;;;;;8.17;86.11;100029.65;109108;276;39477;-72
2023/10/15 06:37:55;;;;;;;10.40;2.80;;;;;;;8.23;86.15;100027.02;109114;276;39309;-70
2023/10/15 06:40:35;;;;;;;9.30;2.20;;;;;;;8.28;85.81;100026.33;109095;276;38491;-67
2023/10/15 06:43:15;;;;;;;10.20;2.20;;;;;;;8.34;85.83;100029.27;109055;276;175487;-71
2023/10/15 06:46:02;;;;;;;5.60;2.20;;;;;;;8.40;85.55;100033.61;109133;276;38488;-68
2023/10/15 06:48:41;;;;;;;8.70;2.20;;;;;;;8.50;85.44;100036.89;109098;276;38363;-68
2023/10/15 06:51:18;;;;;;;4.80;2.40;;;;;;;8.58;85.40;100034.89;109150;276;38257;-70
2023/10/15 06:54:00;;;;;;;11.40;2.60;;;;;;;8.64;85.01;100038.35;108973;276;39360;-68
2023/10/15 06:56:39;;;;;;;7.70;2.50;;;;;;;8.70;84.77;100036.55;109002;276;38638;-71
2023/10/15 06:59:17;;;;;;;6.70;2.10;;;;;;;8.77;84.54;100036.14;109183;276;38302;-71
2023/10/15 07:01:59;;;;;;;7.90;2.40;;;;;;;8.85;84.36;100037.40;109080;276;39204;-71
2023/10/15 07:04:35;;;;;;;8.40;2.20;;;;;;;8.97;84.11;100041.30;108484;276;904204;-71
2023/10/15 07:07:20;;;;;;;8.50;2.10;;;;;;;9.07;83.31;100040.78;109216;276;38313;-67
2023/10/15 07:10:04;;;;;;;8.70;2.40;;;;;;;9.14;83.18;100045.20;109136;276;38426;-71
2023/10/15 07:12:41;;;;;;;9.10;2.10;;;;;;;9.21;83.07;100044.08;109189;276;38258;-67
2023/10/15 07:18:14;;;;;;;7.50;2.00;;;;;;;9.44;83.02;100046.16;109148;276;39624;-71
2023/10/15 07:20:49;;;;;;;3.90;1.60;;;;;;;9.62;82.27;100044.27;109131;276;38527;-69
2023/10/15 07:23:26;;;;;;;7.90;2.60;;;;;;;9.76;82.02;100044.71;109097;276;40382;-68
2023/10/15 07:26:01;;;;;;;6.10;2.40;;;;;;;9.90;80.88;100043.31;109145;276;38794;-71
2023/10/15 07:28:37;;;;;;;6.40;1.90;;;;;;;9.95;79.37;100044.30;108989;276;176057;-71
2023/10/15 07:31:11;;;;;;;8.40;2.10;;;;;;;10.09;79.59;100045.86;109187;276;38252;-69
2023/10/15 07:33:46;;;;;;;5.80;1.80;;;;;;;10.31;79.69;100051.73;109184;276;38533;-68
2023/10/15 07:36:21;;;;;;;5.70;1.90;;;;;;;10.49;78.62;100052.90;109153;276;38238;-68
2023/10/15 07:39:06;;;;;;;7.60;1.80;;;;;;;10.52;77.37;100053.15;109157;276;39963;-68
2023/10/15 07:41:41;;;;;;;6.40;2.10;;;;;;;10.50;76.78;100054.77;109064;276;175084;-73
2023/10/15 07:44:16;;;;;;;4.30;2.20;;;;;;;10.51;76.03;100053.52;109193;276;39396;-72
2023/10/15 07:47:00;;;;;;;8.40;2.80;;;;;;;10.50;74.72;100061.04;109245;276;38268;-68
2023/10/15 07:49:40;;;;;;;7.60;2.30;;;;;;;10.45;73.77;100060.05;109172;276;38967;-69
2023/10/15 07:52:24;;;;;;;7.40;2.10;;;;;;;10.41;73.56;100064.41;109010;276;38547;-67
2023/10/15 07:55:10;;;;;;;5.90;2.20;;;;;;;10.34;73.29;100068.88;109128;276;39634;-67
2023/10/15 07:57:49;;;;;;;5.40;2.20;;;;;;;10.28;72.88;100070.01;109180;276;38287;-67
2023/10/15 08:00:26;;;;;;;3.80;2.10;;;;;;;10.24;72.86;100067.17;109023;276;172648;-68
2023/10/15 08:03:01;;;;;;;6.30;2.20;;;;;;;10.17;71.88;100065.20;109039;276;175430;-70
2023/10/15 08:05:36;;;;;;;7.60;2.30;;;;;;;10.11;71.22;100069.79;109155;276;38207;-71
2023/10/15 08:08:12;;;;;;;5.20;2.00;;;;;;;10.09;71.11;100068.51;108948;276;38458;-70
2023/10/15 08:10:50;;;;;;;8.20;2.50;;;;;;;10.08;72.22;100069.02;109125;276;38431;-71
2023/10/15 08:13:25;;;;;;;5.50;1.80;;;;;;;10.16;73.06;100064.70;109123;276;40126;-70
2023/10/15 08:16:07;;;;;;;7.50;1.80;;;;;;;10.37;73.98;100062.83;109155;276;38278;-71
2023/10/15 08:18:53;;;;;;;5.40;2.10;;;;;;;10.61;73.71;100058.47;108966;276;38602;-66
2023/10/15 08:21:31;;;;;;;6.50;2.30;;;;;;;10.81;72.56;100058.48;109156;276;38237;-68
2023/10/15 08:24:14;;;;;;;5.50;1.70;;;;;;;10.90;71.49;100052.89;109168;276;38443;-68
2023/10/15 08:26:56;;;;;;;5.70;2.20;;;;;;;10.98;71.21;100048.83;109165;276;38232;-69
2023/10/15 08:29:35;;;;;;;4.70;1.80;;;;;;;11.01;70.40;100052.19;109185;276;38226;-68
2023/10/15 08:32:16;;;;;;;7.20;2.00;;;;;;;11.05;70.51;100052.91;109197;276;40392;-68
2023/10/15 08:34:52;;;;;;;8.50;2.10;;;;;;;11.08;69.57;100052.04;109177;276;38230;-71
2023/10/15 08:37:35;;;;;;;8.10;2.50;;;;;;;11.12;69.32;100051.86;109196;276;38729;-68
2023/10/15 08:40:26;;;;;;;7.10;1.80;;;;;;;11.19;68.63;100053.67;109095;276;38152;-67
2023/10/15 08:43:09;;;;;;;5.40;2.20;;;;;;;11.24;68.45;100054.50;109069;276;39001;-69
2023/10/15 08:45:45;;;;;;;8.00;2.00;;;;;;;11.32;67.86;100051.65;109150;276;38779;-71
2023/10/15 08:48:19;;;;;;;4.80;1.70;;;;;;;11.39;67.76;100051.30;109091;276;38275;-71
2023/10/15 08:50:54;;;;;;;4.20;1.60;;;;;;;11.54;66.99;100040.11;109156;276;38231;-71
2023/10/15 08:53:31;;;;;;;8.60;2.50;;;;;;;11.65;66.72;100043.48;109133;276;38130;-72
2023/10/15 08:56:09;;;;;;;5.50;1.70;;;;;;;11.71;66.75;100042.65;109166;276;38453;-71
2023/10/15 08:58:46;;;;;;;3.20;1.30;;;;;;;11.73;65.88;100044.65;109113;276;38251;-71
2023/10/15 09:01:20;;;;;;;5.60;1.80;;;;;;;11.69;65.07;100051.17;109152;276;39842;-70
2023/10/15 09:03:54;;;;;;;4.70;1.50;;;;;;;11.63;64.71;100057.17;109112;276;38933;-72
2023/10/15 09:06:34;;;;;;;4.90;1.70;;;;;;;11.60;64.92;100054.16;109172;276;38236;-68
2023/10/15 09:09:51;;;;;;;5.70;1.60;;;;;;;11.59;64.74;100056.49;109168;276;38852;-67
2023/10/15 09:12:31;;;;;;;6.30;1.80;;;;;;;11.67;65.45;100062.41;109021;276;38193;-69
2023/10/15 09:15:16;;;;;;;5.30;1.60;;;;;;;11.74;65.32;100062.98;109158;276;38733;-65
2023/10/15 09:18:01;;;;;;;6.10;1.80;;;;;;;11.73;64.39;100063.73;109153;276;38658;-70
2023/10/15 09:20:50;;;;;;;4.30;1.80;;;;;;;11.64;64.39;100069.21;109204;276;38225;-70
2023/10/15 09:23:35;;;;;;;4.00;1.70;;;;;;;11.60;64.44;100066.05;109134;276;38150;-71
2023/10/15 09:26:16;;;;;;;4.00;1.50;;;;;;;11.57;63.80;100072.16;109179;276;38154;-73
2023/10/15 09:28:56;;;;;;;3.70;1.60;;;;;;;11.54;64.31;100071.08;109051;276;38176;-70
2023/10/15 09:31:46;;;;;;;5.70;2.20;;;;;;;11.52;64.07;100064.70;108998;276;38174;-67
2023/10/15 09:34:26;;;;;;;4.60;1.70;;;;;;;11.45;64.02;100065.56;108982;276;38157;-68
2023/10/15 09:37:05;;;;;;;5.80;1.60;;;;;;;11.38;64.19;100066.23;109028;276;38136;-65
2023/10/15 09:40:09;;;;;;;5.30;1.80;;;;;;;11.34;63.89;100069.38;109038;276;38147;-66
2023/10/15 09:42:53;;;;;;;4.80;1.50;;;;;;;11.27;63.60;100074.40;109147;276;39360;-71
2023/10/15 09:45:45;;;;;;;3.40;1.40;;;;;;;11.20;63.60;100075.79;109149;273;38572;-71
2023/10/15 09:48:21;;;;;;;5.80;1.80;;;;;;;11.19;63.82;100075.13;109148;276;38747;-71
2023/10/15 09:51:02;;;;;;;4.40;1.60;;;;;;;11.15;63.44;100070.06;109152;276;38302;-70
2023/10/15 09:53:53;;;;;;;5.20;1.90;;;;;;;11.11;63.23;100067.64;109031;276;38202;-70
2023/10/15 09:56:35;;;;;;;4.80;1.90;;;;;;;11.07;63.68;100069.23;109026;276;38150;-67
2023/10/15 09:59:15;;;;;;;4.90;1.60;;;;;;;11.04;63.64;100062.70;108911;276;38525;-67
2023/10/15 10:01:55;;;;;;;4.30;1.60;;;;;;;11.04;63.75;100061.85;109134;276;39312;-69
2023/10/15 10:04:57;;;;;;;5.20;1.70;;;;;;;11.09;64.12;100060.94;109144;276;38697;-70
2023/10/15 10:07:50;;;;;;;6.00;1.80;;;;;;;11.14;64.39;100055.44;109134;276;38380;-70
2023/10/15 10:11:04;;;;;;;5.20;1.60;;;;;;;11.22;64.41;100057.52;109126;276;38173;-72
2023/10/15 10:14:23;;;;;;;5.40;1.80;;;;;;;11.30;63.78;100057.88;109060;276;39389;-67
2023/10/15 10:16:58;;;;;;;3.50;1.40;;;;;;;11.34;63.99;100056.95;109181;276;38184;-72
2023/10/15 10:19:38;;;;;;;4.90;1.80;;;;;;;11.41;64.22;100051.79;109080;276;38778;-75
2023/10/15 10:22:28;;;;;;;5.80;2.00;;;;;;;11.46;64.18;100057.65;109031;276;38637;-69
2023/10/15 10:25:03;;;;;;;10.20;1.70;;;;;;;11.49;63.60;100053.14;109126;276;38337;-69
2023/10/15 10:27:46;;;;;;;4.30;1.60;;;;;;;11.49;63.12;100051.73;109162;276;38275;-71
2023/10/15 10:30:30;;;;;;;8.10;2.10;;;;;;;11.47;63.37;100052.90;109127;276;38238;-70
2023/10/15 10:33:05;;;;;;;4.10;1.50;;;;;;;11.42;63.35;100058.89;109181;276;38161;-66
2023/10/15 10:35:55;;;;;;;4.80;2.00;;;;;;;11.38;63.51;100061.86;109111;276;38631;-68
2023/10/15 10:38:39;;;;;;;5.80;2.30;;;;;;;11.38;63.67;100059.06;109172;276;38550;-67
2023/10/15 10:41:17;;;;;;;4.70;1.90;;;;;;;11.44;63.66;100061.23;109192;276;40365;-70
2023/10/15 10:43:55;;;;;;;4.70;1.90;;;;;;;11.53;63.91;100054.34;109142;276;38357;-72
2023/10/15 10:46:50;;;;;;;7.20;2.10;;;;;;;11.60;63.49;100055.23;109072;276;39726;-67
2023/10/15 10:49:52;;;;;;;6.50;2.10;;;;;;;11.64;63.36;100049.82;106116;276;39061;-69
2023/10/15 10:53:22;;;;;;;6.50;2.00;;;;;;;11.61;62.87;100047.30;109118;276;39383;-71
2023/10/15 10:56:07;;;;;;;6.00;2.10;;;;;;;11.56;62.56;100045.29;109172;276;37246;-68
2023/10/15 10:58:43;;;;;;;7.50;2.80;;;;;;;11.49;62.49;100051.04;108964;276;38846;-68
2023/10/15 11:01:26;;;;;;;6.10;2.00;;;;;;;11.41;62.41;100051.41;109204;276;38663;-66
2023/10/15 11:04:06;;;;;;;6.00;2.60;;;;;;;11.34;62.40;100054.88;109119;276;38760;-66
2023/10/15 11:06:47;;;;;;;5.10;1.90;;;;;;;11.27;62.25;100049.63;109132;276;39168;-68
2023/10/15 11:09:26;;;;;;;4.80;2.00;;;;;;;11.20;62.37;100051.87;109094;276;38643;-66
2023/10/15 11:12:04;;;;;;;5.60;2.00;;;;;;;11.18;63.04;100059.30;109179;276;38207;-70
2023/10/15 11:14:41;;;;;;;6.90;2.20;;;;;;;11.18;62.82;100053.35;109144;276;38210;-71
2023/10/15 11:17:21;;;;;;;4.60;1.90;;;;;;;11.17;62.92;100051.84;109174;276;38644;-70
2023/10/15 11:19:56;;;;;;;7.00;2.60;;;;;;;11.17;62.99;100058.80;109183;276;38186;-70
2023/10/15 11:22:35;;;;;;;9.80;2.30;;;;;;;11.15;62.57;100049.83;109206;276;38131;-67
2023/10/15 11:25:23;;;;;;;5.40;1.60;;;;;;;11.16;62.82;100043.14;109045;276;175273;-67
2023/10/15 11:28:06;;;;;;;5.80;2.40;;;;;;;11.24;62.96;100044.89;109131;276;38220;-70
2023/10/15 11:30:42;;;;;;;5.50;1.60;;;;;;;11.29;62.69;100040.11;109226;276;38255;-70
2023/10/15 11:33:17;;;;;;;7.00;1.90;;;;;;;11.34;62.42;100041.98;109169;276;38288;-70
2023/10/15 11:35:57;;;;;;;4.10;1.60;;;;;;;11.35;62.27;100041.94;109166;276;38700;-67
2023/10/15 11:38:49;;;;;;;5.20;1.80;;;;;;;11.34;62.32;100037.40;109105;276;38333;-66
2023/10/15 11:41:31;;;;;;;4.50;1.50;;;;;;;11.29;61.35;100041.48;109027;276;175283;-66
2023/10/15 11:44:17;;;;;;;5.30;1.70;;;;;;;11.20;61.43;100040.33;109137;276;38261;-67
2023/10/15 11:47:12;;;;;;;6.60;2.00;;;;;;;11.21;62.00;100036.13;108903;276;39381;-69
2023/10/15 11:50:06;;;;;;;8.00;2.20;;;;;;;11.26;62.34;100041.42;108964;276;38409;-70
2023/10/15 11:52:50;;;;;;;6.30;2.20;;;;;;;11.33;62.38;100043.20;109096;276;38711;-67
2023/10/15 11:55:31;;;;;;;4.10;1.80;;;;;;;11.40;62.40;100042.94;109144;276;38209;-67
2023/10/15 11:58:12;;;;;;;6.00;2.40;;;;;;;11.42;61.86;100035.85;109143;276;38440;-69
2023/10/15 12:00:52;;;;;;;5.70;1.80;;;;;;;11.45;62.37;100030.80;109186;276;39033;-68
2023/10/15 12:03:36;;;;;;;4.50;1.60;;;;;;;11.48;60.90;100030.97;109147;269;38229;-67
2023/10/15 12:06:17;;;;;;;5.10;1.70;;;;;;;11.50;61.05;100029.67;109157;276;39430;-70
2023/10/15 12:08:58;;;;;;;5.30;1.60;;;;;;;11.51;60.79;100031.23;109100;276;40085;-70
2023/10/15 12:11:38;;;;;;;6.00;1.90;;;;;;;11.52;60.79;100036.05;109185;276;38199;-69
2023/10/15 12:14:17;;;;;;;5.20;1.50;;;;;;;11.55;60.79;100040.27;109212;276;38217;-70
2023/10/15 12:16:55;;;;;;;6.90;1.70;;;;;;;11.59;60.52;100042.86;109159;276;39418;-70
2023/10/15 12:19:31;;;;;;;5.00;1.70;;;;;;;11.57;60.42;100041.58;109111;276;38178;-72
2023/10/15 12:22:14;;;;;;;4.50;1.80;;;;;;;11.53;60.53;100040.54;109181;276;38896;-70
2023/10/15 12:25:00;;;;;;;4.70;1.80;;;;;;;11.49;60.19;100047.39;109106;276;39848;-67
2023/10/15 12:27:39;;;;;;;6.30;2.00;;;;;;;11.42;60.02;100051.90;109091;275;38938;-67
2023/10/15 12:30:23;;;;;;;7.80;2.20;;;;;;;11.36;60.30;100057.23;109166;268;38118;-71
2023/10/15 12:32:59;;;;;;;7.30;2.20;;;;;;;11.31;60.64;100056.74;109162;276;38618;-71
2023/10/15 12:35:33;;;;;;;5.80;1.80;;;;;;;11.28;60.88;100058.47;109168;276;38226;-74
2023/10/15 12:38:16;;;;;;;7.50;2.50;;;;;;;11.25;60.80;100058.11;109094;276;38465;-71
2023/10/15 12:40:51;;;;;;;5.30;2.30;;;;;;;11.19;60.72;100055.04;109070;276;38220;-68
2023/10/15 12:43:36;;;;;;;6.10;2.40;;;;;;;11.14;60.81;100054.05;109099;276;38781;-68